Time;durP1;ratioP1;P1;durP2;ratioP2;P2;SDS_P1;SDS_P2;PMS_P1;PMS_P2;Temp;Humidity;BMP_temperature;BMP_pressure;BME280_temperature;BME280_humidity;BME280_pressure;Samples;Min_cycle;Max_cycle;Signal;HPM_P1;HPM_P2
2023/01/26 00:01:19;;;;;;;49.42;29.67;;;2.90;1.00;;;;;;4952408;29;20051;-77
2023/01/26 00:03:48;;;;;;;51.72;32.25;;;3.00;1.00;;;;;;4958735;28;20050;-77
2023/01/26 00:06:18;;;;;;;52.72;32.63;;;3.00;1.00;;;;;;4957137;28;20043;-77
2023/01/26 00:08:47;;;;;;;51.75;29.92;;;2.90;1.00;;;;;;4954499;29;20129;-76
2023/01/26 00:11:17;;;;;;;45.30;26.48;;;2.80;1.00;;;;;;4952849;29;20047;-78
2023/01/26 00:13:44;;;;;;;50.55;28.73;;;2.80;1.00;;;;;;4953470;29;20039;-74
2023/01/26 00:16:14;;;;;;;49.80;27.05;;;2.80;1.00;;;;;;4952346;29;20043;-78
2023/01/26 00:18:42;;;;;;;49.88;28.70;;;2.80;1.00;;;;;;4952628;29;20499;-75
2023/01/26 00:21:14;;;;;;;47.55;28.33;;;2.80;1.00;;;;;;4952443;29;20411;-74
2023/01/26 00:23:41;;;;;;;49.80;29.05;;;2.80;1.00;;;;;;4934948;29;20078;-78
2023/01/26 00:26:11;;;;;;;52.30;30.70;;;2.90;1.00;;;;;;4952076;29;20051;-75
2023/01/26 00:28:40;;;;;;;53.45;29.70;;;2.90;1.00;;;;;;4952013;29;20039;-76
2023/01/26 00:31:08;;;;;;;50.08;28.60;;;2.90;1.00;;;;;;4933853;29;20502;-76
2023/01/26 00:33:37;;;;;;;47.97;28.10;;;3.00;1.00;;;;;;4953600;29;20039;-77
2023/01/26 00:36:05;;;;;;;42.33;26.27;;;3.00;1.00;;;;;;4939160;29;20050;-77
2023/01/26 00:38:35;;;;;;;49.35;28.42;;;2.90;99.90;;;;;;4937098;29;20098;-78
2023/01/26 00:41:03;;;;;;;55.63;31.17;;;2.90;1.00;;;;;;4934409;29;20211;-75
2023/01/26 00:43:31;;;;;;;53.92;30.80;;;2.90;1.00;;;;;;4951894;28;20043;-77
2023/01/26 00:45:59;;;;;;;52.60;31.55;;;2.90;1.00;;;;;;4934141;29;20056;-77
2023/01/26 00:48:26;;;;;;;45.47;27.10;;;2.90;1.00;;;;;;4934489;29;20506;-76
2023/01/26 00:50:54;;;;;;;54.95;30.30;;;2.90;1.00;;;;;;4951299;29;20046;-75
2023/01/26 00:53:21;;;;;;;49.63;29.50;;;2.90;1.00;;;;;;4934545;29;20051;-77
2023/01/26 00:55:52;;;;;;;45.80;27.92;;;2.80;1.00;;;;;;4951884;29;20094;-74
2023/01/26 00:58:19;;;;;;;53.83;29.75;;;2.80;1.00;;;;;;4962965;29;20051;-76
2023/01/26 01:00:47;;;;;;;48.50;29.30;;;2.80;1.00;;;;;;4962317;29;20488;-75
2023/01/26 01:03:14;;;;;;;50.10;31.35;;;2.90;1.00;;;;;;4938851;29;20047;-76
2023/01/26 01:05:42;;;;;;;49.72;31.40;;;2.90;1.00;;;;;;4934142;29;20059;-78
2023/01/26 01:08:09;;;;;;;50.38;31.08;;;2.80;1.00;;;;;;4934795;29;20142;-75
2023/01/26 01:10:36;;;;;;;54.78;31.65;;;2.80;1.00;;;;;;4949963;29;20035;-76
2023/01/26 01:13:05;;;;;;;50.85;31.83;;;2.80;1.00;;;;;;4951489;29;20549;-75
2023/01/26 01:15:33;;;;;;;50.15;32.42;;;2.80;1.00;;;;;;4949847;29;20522;-77
2023/01/26 01:18:00;;;;;;;51.17;31.48;;;2.90;1.00;;;;;;4950557;29;20051;-76
2023/01/26 01:20:30;;;;;;;50.78;30.95;;;2.80;1.00;;;;;;4950070;29;20046;-77
2023/01/26 01:22:57;;;;;;;48.85;30.75;;;2.80;1.00;;;;;;4949630;29;20065;-77
2023/01/26 01:25:25;;;;;;;47.05;30.63;;;2.70;1.00;;;;;;4934540;29;20043;-77
2023/01/26 01:27:52;;;;;;;51.08;32.60;;;2.60;1.00;;;;;;4951799;29;20082;-77
2023/01/26 01:30:21;;;;;;;55.22;35.80;;;2.60;1.00;;;;;;4950581;29;20092;-76
2023/01/26 01:32:50;;;;;;;50.17;34.33;;;2.60;1.00;;;;;;4950009;29;20039;-75
2023/01/26 01:35:17;;;;;;;55.50;38.30;;;2.50;1.00;;;;;;4933920;29;20062;-76
2023/01/26 01:37:45;;;;;;;54.17;36.80;;;2.50;1.00;;;;;;4951046;29;20062;-77
2023/01/26 01:40:13;;;;;;;51.70;35.08;;;2.50;1.00;;;;;;4950347;29;20134;-76
2023/01/26 01:42:47;;;;;;;53.33;37.28;;;2.50;1.00;;;;;;4933762;29;20047;-76
2023/01/26 01:45:41;;;;;;;55.42;38.13;;;2.50;1.00;;;;;;4949164;29;20215;-78
2023/01/26 01:48:16;;;;;;;58.63;39.75;;;2.40;61.20;;;;;;4951148;29;20133;-76
2023/01/26 01:50:44;;;;;;;50.65;37.00;;;2.40;99.90;;;;;;4950045;29;20139;-77
2023/01/26 01:53:18;;;;;;;55.55;37.92;;;2.40;99.90;;;;;;4951420;29;20039;-76
2023/01/26 01:55:46;;;;;;;55.17;37.22;;;2.40;99.90;;;;;;4949319;29;20047;-75
2023/01/26 01:58:14;;;;;;;58.50;39.13;;;2.40;99.90;;;;;;4949345;29;20674;-77
2023/01/26 02:00:43;;;;;;;53.00;36.92;;;2.40;99.90;;;;;;4950717;29;20040;-76
2023/01/26 02:03:13;;;;;;;56.22;38.53;;;2.40;99.90;;;;;;4950801;29;20050;-76
2023/01/26 02:05:52;;;;;;;57.88;40.13;;;2.40;99.90;;;;;;4934006;29;20053;-76
2023/01/26 02:08:21;;;;;;;54.97;38.30;;;2.40;99.90;;;;;;4951093;29;20047;-76
2023/01/26 02:10:52;;;;;;;53.83;37.45;;;2.40;99.90;;;;;;4939012;29;20461;-77
2023/01/26 02:13:20;;;;;;;55.60;37.33;;;2.40;99.90;;;;;;4941914;29;20110;-76
2023/01/26 02:15:50;;;;;;;56.28;39.33;;;2.50;99.90;;;;;;4953300;29;20127;-75
2023/01/26 02:18:18;;;;;;;54.95;38.08;;;2.40;99.90;;;;;;4950813;29;20074;-77
2023/01/26 02:20:49;;;;;;;50.58;36.80;;;2.40;99.90;;;;;;4950047;29;20403;-77
2023/01/26 02:23:36;;;;;;;56.70;37.63;;;2.40;99.90;;;;;;4932841;29;20056;-76
2023/01/26 02:26:11;;;;;;;56.15;39.30;;;2.40;99.90;;;;;;4949960;29;20043;-76
2023/01/26 02:28:39;;;;;;;56.95;40.58;;;2.40;99.90;;;;;;4933148;29;20051;-75
2023/01/26 02:31:08;;;;;;;54.35;37.35;;;2.40;1.00;;;;;;4935709;29;20495;-77
2023/01/26 02:33:36;;;;;;;57.38;38.22;;;2.50;99.90;;;;;;4952104;29;20078;-76
2023/01/26 02:36:07;;;;;;;58.20;38.15;;;2.50;99.90;;;;;;4951980;29;20035;-76
2023/01/26 02:38:40;;;;;;;58.63;38.42;;;2.40;99.90;;;;;;4936615;29;20058;-76
2023/01/26 02:42:37;;;;;;;57.88;37.25;;;2.40;1.00;;;;;;4951684;29;20047;-77
2023/01/26 02:43:59;;;;;;;54.05;36.78;;;2.30;99.90;;;;;;4952030;29;20126;-74
2023/01/26 02:46:27;;;;;;;52.75;35.28;;;2.30;1.00;;;;;;4936124;29;20075;-77
2023/01/26 02:51:39;;;;;;;61.92;39.70;;;2.20;1.00;;;;;;4933335;29;20106;-77
2023/01/26 02:54:06;;;;;;;57.85;38.05;;;2.20;1.00;;;;;;4934755;29;20155;-77
2023/01/26 02:56:38;;;;;;;59.60;37.58;;;2.20;78.60;;;;;;4948067;28;20044;-77
2023/01/26 02:59:06;;;;;;;56.90;36.42;;;2.20;87.60;;;;;;4942710;29;20048;-78
2023/01/26 03:01:33;;;;;;;63.20;38.33;;;2.20;94.90;;;;;;4942392;29;20052;-76
2023/01/26 03:04:01;;;;;;;63.05;38.72;;;2.20;44.20;;;;;;4934486;29;20051;-76
2023/01/26 03:06:29;;;;;;;59.65;38.97;;;2.20;99.90;;;;;;4933060;29;20044;-76
2023/01/26 03:08:57;;;;;;;65.57;41.00;;;2.10;1.00;;;;;;4933106;29;20114;-75
2023/01/26 03:11:40;;;;;;;65.93;39.70;;;2.10;33.70;;;;;;4933778;29;20048;-74
2023/01/26 03:14:09;;;;;;;65.30;40.45;;;2.00;1.00;;;;;;4934367;29;20071;-77
2023/01/26 03:16:38;;;;;;;68.60;41.75;;;2.00;99.90;;;;;;4949060;29;20059;-76
2023/01/26 03:27:26;;;;;;;70.93;41.13;;;2.00;1.00;;;;;;4948322;29;20052;-76
2023/01/26 03:29:57;;;;;;;66.97;41.22;;;2.00;1.00;;;;;;4932612;29;20062;-77
2023/01/26 03:32:25;;;;;;;70.07;41.65;;;2.00;1.00;;;;;;4934374;29;20044;-77
2023/01/26 03:34:54;;;;;;;67.50;39.33;;;2.00;90.30;;;;;;4933311;29;20043;-75
2023/01/26 03:37:22;;;;;;;65.38;39.47;;;2.00;1.00;;;;;;4932769;29;20073;-75
2023/01/26 03:56:35;;;;;;;60.17;35.55;;;2.10;1.00;;;;;;4932324;29;19923;-78
2023/01/26 03:59:13;;;;;;;55.63;33.63;;;2.10;1.00;;;;;;4951192;29;20444;-75
2023/01/26 04:10:00;;;;;;;51.85;29.58;;;2.40;99.90;;;;;;4933074;29;20069;-76
2023/01/26 04:12:28;;;;;;;53.67;31.75;;;2.40;1.00;;;;;;4932100;29;20484;-76
2023/01/26 04:23:27;;;;;;;50.40;30.33;;;2.40;99.90;;;;;;4932982;29;20083;-75
2023/01/26 04:25:56;;;;;;;56.15;30.98;;;2.50;1.00;;;;;;4931883;29;20127;-75
2023/01/26 04:28:24;;;;;;;51.92;31.98;;;2.40;1.00;;;;;;4931713;29;20381;-77
2023/01/26 04:30:52;;;;;;;52.85;31.95;;;2.40;1.00;;;;;;4934486;29;20134;-76
2023/01/26 04:33:20;;;;;;;49.13;30.98;;;2.40;1.00;;;;;;4941486;29;20043;-76
2023/01/26 04:35:48;;;;;;;48.15;29.55;;;2.40;1.00;;;;;;4932457;29;20047;-76
2023/01/26 04:38:17;;;;;;;47.03;28.73;;;2.40;1.00;;;;;;4935210;29;20069;-77
2023/01/26 04:40:44;;;;;;;51.15;30.60;;;2.20;1.00;;;;;;4940679;29;20091;-77
2023/01/26 04:43:12;;;;;;;49.42;30.10;;;2.30;1.00;;;;;;4946156;29;20043;-77
2023/01/26 04:45:40;;;;;;;47.97;29.70;;;2.20;1.00;;;;;;4946679;29;20550;-77
2023/01/26 04:48:08;;;;;;;50.78;31.58;;;2.20;1.00;;;;;;4939386;29;20066;-77
2023/01/26 04:50:37;;;;;;;43.42;28.20;;;2.20;1.00;;;;;;4930781;29;20039;-76
2023/01/26 04:53:05;;;;;;;48.05;28.58;;;2.20;1.00;;;;;;4930847;29;20056;-77
2023/01/26 04:55:33;;;;;;;44.15;29.02;;;2.20;1.00;;;;;;4931070;29;20044;-76
2023/01/26 04:58:00;;;;;;;43.00;27.05;;;2.30;1.00;;;;;;4932436;29;20607;-78
2023/01/26 05:00:28;;;;;;;42.75;26.67;;;2.30;1.00;;;;;;4931483;29;20066;-75
2023/01/26 05:02:56;;;;;;;38.63;24.23;;;2.20;99.90;;;;;;4931022;29;20043;-77
2023/01/26 05:05:23;;;;;;;42.13;27.83;;;2.20;39.10;;;;;;4930376;29;20055;-76
2023/01/26 05:07:52;;;;;;;41.22;28.00;;;2.20;99.90;;;;;;4931228;29;20050;-78
2023/01/26 05:10:20;;;;;;;39.47;26.40;;;2.20;99.90;;;;;;4930472;29;20051;-78
2023/01/26 05:13:06;;;;;;;41.00;27.08;;;2.10;99.90;;;;;;4932442;29;20054;-76
2023/01/26 05:16:03;;;;;;;;;;;2.10;1.00;;;;;;4922962;29;20052;-77
2023/01/26 05:18:48;;;;;;;48.08;32.05;;;2.10;1.00;;;;;;4932822;29;19945;-76
2023/01/26 05:21:34;;;;;;;51.63;34.65;;;2.10;72.30;;;;;;4931717;29;20095;-76
2023/01/26 05:24:04;;;;;;;46.47;33.03;;;2.10;42.60;;;;;;4930480;29;20142;-76
2023/01/26 05:29:40;;;;;;;51.90;36.88;;;2.10;1.00;;;;;;4932013;29;20070;-78
2023/01/26 05:32:07;;;;;;;52.00;36.85;;;2.10;1.00;;;;;;4932118;29;20040;-77
2023/01/26 05:34:35;;;;;;;61.10;38.53;;;2.20;1.00;;;;;;4931871;29;20146;-77
2023/01/26 05:37:04;;;;;;;47.72;34.28;;;2.20;1.00;;;;;;4931110;29;20048;-77
2023/01/26 05:39:34;;;;;;;53.33;35.08;;;2.20;1.00;;;;;;4930946;29;20139;-77
2023/01/26 05:42:05;;;;;;;50.60;34.90;;;2.30;1.00;;;;;;4930478;29;20082;-77
2023/01/26 05:45:09;;;;;;;44.75;32.35;;;2.40;1.00;;;;;;4923642;29;20055;-76
2023/01/26 05:47:39;;;;;;;43.08;31.00;;;2.50;1.00;;;;;;4932808;28;20042;-75
2023/01/26 05:50:08;;;;;;;45.95;32.75;;;2.50;1.00;;;;;;4951023;29;20072;-76
2023/01/26 05:52:36;;;;;;;48.15;33.03;;;2.60;1.00;;;;;;4933714;29;20052;-77
2023/01/26 05:55:06;;;;;;;47.47;33.42;;;2.70;99.90;;;;;;4951342;29;20055;-75
2023/01/26 05:57:35;;;;;;;48.15;34.63;;;2.70;24.20;;;;;;4933552;29;20521;-77
2023/01/26 06:00:07;;;;;;;48.90;32.50;;;2.60;1.00;;;;;;4949234;29;20114;-76
2023/01/26 06:02:41;;;;;;;44.53;31.55;;;2.60;1.00;;;;;;4950126;28;20140;-75
2023/01/26 06:05:11;;;;;;;41.97;30.90;;;2.50;1.00;;;;;;4935025;29;20047;-76
2023/01/26 06:07:39;;;;;;;46.28;31.92;;;2.50;1.00;;;;;;4937376;29;20162;-76
2023/01/26 06:10:26;;;;;;;45.20;30.90;;;2.40;1.00;;;;;;4936483;29;20047;-76
2023/01/26 06:13:01;;;;;;;48.83;34.63;;;2.40;20.60;;;;;;4936928;29;20048;-78
2023/01/26 06:15:45;;;;;;;56.13;37.67;;;2.40;99.90;;;;;;4943679;29;20047;-76
2023/01/26 06:18:13;;;;;;;54.35;37.08;;;2.40;99.90;;;;;;4964396;29;20051;-77
2023/01/26 06:20:46;;;;;;;50.85;35.08;;;2.40;99.90;;;;;;4937661;29;20048;-76
2023/01/26 06:23:15;;;;;;;56.13;35.75;;;2.40;99.90;;;;;;4952205;29;20573;-77
2023/01/26 06:25:47;;;;;;;54.90;37.60;;;2.30;99.90;;;;;;4943643;29;20055;-79
2023/01/26 06:28:14;;;;;;;55.13;38.70;;;2.20;99.90;;;;;;4942221;29;20048;-76
2023/01/26 06:30:41;;;;;;;58.28;39.75;;;2.20;1.00;;;;;;4939224;29;20050;-76
2023/01/26 06:33:12;;;;;;;59.15;39.60;;;2.10;1.00;;;;;;4937610;29;20058;-77
2023/01/26 06:35:40;;;;;;;54.30;36.90;;;2.20;1.00;;;;;;4954707;29;20476;-79
2023/01/26 06:38:14;;;;;;;56.17;39.78;;;2.20;1.00;;;;;;4936825;29;20135;-78
2023/01/26 06:40:41;;;;;;;47.00;32.85;;;2.20;1.00;;;;;;4936761;29;20047;-77
2023/01/26 06:43:10;;;;;;;55.47;37.80;;;2.30;1.00;;;;;;4936749;29;20206;-77
2023/01/26 06:45:38;;;;;;;55.40;36.40;;;2.20;1.00;;;;;;4937118;29;20125;-76
2023/01/26 06:48:05;;;;;;;56.13;36.63;;;2.20;1.00;;;;;;4935733;29;20088;-78
2023/01/26 06:50:35;;;;;;;49.75;32.20;;;2.40;1.00;;;;;;4953342;29;20177;-75
2023/01/26 06:53:21;;;;;;;48.70;31.83;;;2.50;1.00;;;;;;4953680;28;20558;-77
2023/01/26 06:55:55;;;;;;;40.92;27.90;;;2.50;1.00;;;;;;4935768;29;20076;-76
2023/01/26 06:58:36;;;;;;;35.15;22.17;;;2.40;99.90;;;;;;4935639;29;20043;-77
2023/01/26 07:01:36;;;;;;;38.95;24.50;;;2.50;99.90;;;;;;4952402;29;20043;-76
2023/01/26 07:04:04;;;;;;;38.17;24.05;;;2.50;99.90;;;;;;4953232;28;20475;-77
2023/01/26 07:06:31;;;;;;;40.83;26.42;;;2.50;99.90;;;;;;4953568;29;20553;-77
2023/01/26 07:08:58;;;;;;;43.58;26.95;;;2.50;1.00;;;;;;4953583;29;20043;-76
2023/01/26 07:11:28;;;;;;;58.90;36.15;;;2.50;20.70;;;;;;4935159;29;20415;-76
2023/01/26 07:13:58;;;;;;;67.32;40.15;;;2.50;1.00;;;;;;4953543;29;20112;-78
2023/01/26 07:16:26;;;;;;;64.03;39.33;;;2.50;1.00;;;;;;4953380;28;20517;-76
2023/01/26 07:18:54;;;;;;;54.28;33.90;;;2.50;1.00;;;;;;4952851;29;20488;-77
2023/01/26 07:21:22;;;;;;;55.53;33.70;;;2.50;1.00;;;;;;4953224;29;20094;-75
2023/01/26 07:23:52;;;;;;;46.33;30.00;;;2.50;1.00;;;;;;4953298;28;20043;-77
2023/01/26 07:26:20;;;;;;;42.92;28.13;;;2.40;1.00;;;;;;4952658;29;20047;-77
2023/01/26 07:28:47;;;;;;;44.25;28.02;;;2.40;1.00;;;;;;4952548;29;20032;-76
2023/01/26 07:31:16;;;;;;;40.67;26.60;;;2.30;1.00;;;;;;4952315;29;20040;-75
2023/01/26 07:33:44;;;;;;;48.10;29.80;;;2.30;99.90;;;;;;4952989;28;20113;-77
2023/01/26 07:36:11;;;;;;;40.03;26.67;;;2.40;99.90;;;;;;4953039;29;20155;-76
2023/01/26 07:38:39;;;;;;;41.10;26.63;;;2.50;99.90;;;;;;4952657;29;20078;-76
2023/01/26 07:41:08;;;;;;;44.10;27.77;;;2.50;1.00;;;;;;4952699;29;20055;-76
2023/01/26 07:43:37;;;;;;;39.85;27.85;;;2.50;1.00;;;;;;4953112;29;20662;-75
2023/01/26 07:46:11;;;;;;;45.45;29.20;;;2.50;1.00;;;;;;4952989;29;20134;-75
2023/01/26 07:48:40;;;;;;;40.97;28.73;;;2.50;1.00;;;;;;4956558;28;20063;-75
2023/01/26 07:51:09;;;;;;;45.20;27.95;;;2.50;1.00;;;;;;4952498;29;20130;-75
2023/01/26 07:53:38;;;;;;;48.47;30.23;;;2.40;1.00;;;;;;4952774;29;20063;-79
2023/01/26 07:56:07;;;;;;;54.78;34.55;;;2.50;1.00;;;;;;4952769;29;20059;-76
2023/01/26 07:58:35;;;;;;;48.67;30.30;;;2.60;1.00;;;;;;4952897;29;20495;-75
2023/01/26 08:01:07;;;;;;;46.35;29.42;;;2.70;1.00;;;;;;4952556;29;20043;-75
2023/01/26 08:03:35;;;;;;;43.70;26.20;;;2.60;1.00;;;;;;4935001;29;20051;-77
2023/01/26 08:06:05;;;;;;;41.22;25.45;;;2.50;1.00;;;;;;4952330;29;20391;-78
2023/01/26 08:08:33;;;;;;;49.55;30.83;;;2.50;1.00;;;;;;4951995;29;20043;-77
2023/01/26 08:11:02;;;;;;;45.92;27.77;;;2.50;1.00;;;;;;4951524;29;20039;-76
2023/01/26 08:13:30;;;;;;;49.30;29.75;;;2.50;1.00;;;;;;4952401;29;20124;-77
2023/01/26 08:16:01;;;;;;;48.10;31.25;;;2.60;1.00;;;;;;4953284;29;20071;-76
2023/01/26 08:18:30;;;;;;;49.88;27.77;;;2.60;1.00;;;;;;4936438;29;20043;-78
2023/01/26 08:20:59;;;;;;;40.75;25.02;;;2.50;1.00;;;;;;4952125;29;20043;-78
2023/01/26 08:23:28;;;;;;;46.83;30.60;;;2.40;1.00;;;;;;4952326;29;20569;-77
2023/01/26 08:25:55;;;;;;;48.15;32.53;;;2.40;1.00;;;;;;4952162;29;20102;-75
2023/01/26 08:28:23;;;;;;;38.53;26.38;;;2.40;1.00;;;;;;4952575;28;20133;-76
2023/01/26 08:30:50;;;;;;;37.95;27.35;;;2.50;1.00;;;;;;4952158;29;20046;-77
2023/01/26 08:33:18;;;;;;;39.35;27.70;;;2.40;1.00;;;;;;4953542;28;20039;-74
2023/01/26 08:35:45;;;;;;;32.28;22.25;;;2.40;1.00;;;;;;4968065;29;20049;-77
2023/01/26 08:38:13;;;;;;;35.58;24.70;;;2.40;1.00;;;;;;4964597;29;20071;-77
2023/01/26 08:40:42;;;;;;;40.58;30.45;;;2.40;1.00;;;;;;4952313;29;20035;-75
2023/01/26 08:43:09;;;;;;;36.05;25.25;;;2.40;1.00;;;;;;4952084;28;20056;-77
2023/01/26 08:45:37;;;;;;;38.67;28.35;;;2.40;1.00;;;;;;4952126;29;20138;-77
2023/01/26 08:48:05;;;;;;;37.83;26.85;;;2.40;1.00;;;;;;4951323;28;20055;-78
2023/01/26 08:50:32;;;;;;;39.22;27.33;;;2.50;1.00;;;;;;4952023;29;20035;-77
2023/01/26 08:53:00;;;;;;;33.65;25.55;;;2.50;1.00;;;;;;4954358;28;20067;-77
2023/01/26 08:55:28;;;;;;;29.30;22.30;;;2.50;99.90;;;;;;4960067;29;20047;-78
2023/01/26 08:57:57;;;;;;;37.10;26.70;;;2.50;1.00;;;;;;4952384;29;20185;-78
2023/01/26 09:00:25;;;;;;;74.53;53.45;;;2.50;99.90;;;;;;4933649;29;20051;-75
2023/01/26 09:02:59;;;;;;;36.30;27.67;;;2.60;99.90;;;;;;4952180;29;20044;-77
2023/01/26 09:05:27;;;;;;;37.38;29.77;;;2.60;99.90;;;;;;4951231;29;20047;-76
2023/01/26 09:07:55;;;;;;;30.38;22.05;;;2.60;99.90;;;;;;4951276;29;20051;-77
2023/01/26 09:10:22;;;;;;;42.13;28.98;;;2.50;99.90;;;;;;4951022;29;20043;-74
2023/01/26 09:12:50;;;;;;;41.20;29.73;;;2.50;99.90;;;;;;4951474;29;20134;-77
2023/01/26 09:15:19;;;;;;;36.58;25.00;;;2.60;99.90;;;;;;4951716;29;20261;-76
2023/01/26 09:17:48;;;;;;;28.05;19.67;;;2.60;99.90;;;;;;4933215;29;20054;-75
2023/01/26 09:20:17;;;;;;;29.83;19.63;;;2.60;99.90;;;;;;4950328;29;20055;-76
2023/01/26 09:22:44;;;;;;;28.45;18.83;;;2.60;99.90;;;;;;4950268;29;20039;-75
2023/01/26 09:25:12;;;;;;;26.48;18.92;;;2.50;99.90;;;;;;4951130;29;20118;-77
2023/01/26 09:27:39;;;;;;;32.03;22.13;;;2.60;99.90;;;;;;4951402;29;20051;-77
2023/01/26 09:30:09;;;;;;;30.27;20.58;;;2.60;99.90;;;;;;4950634;29;20050;-76
2023/01/26 09:32:37;;;;;;;37.20;23.45;;;2.60;99.90;;;;;;4957362;28;20035;-76
2023/01/26 09:35:10;;;;;;;32.38;20.92;;;2.70;99.90;;;;;;4955422;29;20054;-75
2023/01/26 09:37:38;;;;;;;29.17;18.80;;;2.80;99.90;;;;;;4950198;29;20342;-75
2023/01/26 09:40:13;;;;;;;26.50;17.30;;;2.80;99.90;;;;;;4954954;28;20043;-77
2023/01/26 09:42:55;;;;;;;24.88;16.17;;;2.60;99.90;;;;;;4955519;29;20118;-75
2023/01/26 09:45:29;;;;;;;30.85;20.27;;;2.70;99.90;;;;;;4955588;29;20134;-77
2023/01/26 09:48:14;;;;;;;29.25;19.55;;;2.70;99.90;;;;;;4954853;29;20047;-76
2023/01/26 09:50:46;;;;;;;34.25;20.75;;;2.70;99.90;;;;;;4954676;29;20045;-76
2023/01/26 09:53:18;;;;;;;25.42;16.90;;;2.80;99.90;;;;;;4955311;28;20047;-78
2023/01/26 09:55:47;;;;;;;28.48;17.73;;;2.80;99.90;;;;;;4956856;29;20051;-76
2023/01/26 09:58:20;;;;;;;30.40;19.90;;;2.80;99.90;;;;;;4957372;29;20035;-77
2023/01/26 10:00:50;;;;;;;24.80;16.00;;;2.90;99.90;;;;;;4955390;29;20047;-78
2023/01/26 10:03:26;;;;;;;29.02;17.52;;;3.00;38.00;;;;;;4954930;28;20039;-75
2023/01/26 10:06:01;;;;;;;28.90;16.75;;;3.20;1.00;;;;;;4954933;29;20043;-75
2023/01/26 10:09:06;;;;;;;35.13;19.75;;;3.40;1.00;;;;;;4954320;29;20087;-77
2023/01/26 10:11:39;;;;;;;31.88;19.02;;;3.50;1.00;;;;;;4954503;29;20396;-77
2023/01/26 10:14:14;;;;;;;34.30;18.83;;;3.60;1.00;;;;;;4937411;29;20053;-77
2023/01/26 10:16:45;;;;;;;40.38;22.90;;;3.50;1.00;;;;;;4953874;29;20039;-77
2023/01/26 10:19:21;;;;;;;39.78;21.95;;;3.50;1.00;;;;;;4952929;29;20162;-75
2023/01/26 10:21:51;;;;;;;25.75;16.92;;;3.50;1.00;;;;;;4953621;29;20047;-75
2023/01/26 10:24:22;;;;;;;44.55;23.48;;;3.50;1.00;;;;;;4961389;29;20039;-76
2023/01/26 10:26:52;;;;;;;36.70;19.83;;;3.60;1.00;;;;;;4960832;29;20060;-78
2023/01/26 10:29:20;;;;;;;36.28;19.85;;;3.40;1.00;;;;;;4960415;29;20046;-76
2023/01/26 10:31:48;;;;;;;37.67;20.00;;;3.30;1.00;;;;;;4962137;29;20074;-76
2023/01/26 10:34:22;;;;;;;36.30;19.23;;;3.50;1.00;;;;;;4955263;29;20327;-75
2023/01/26 10:36:50;;;;;;;27.25;17.60;;;3.10;1.00;;;;;;4953406;29;20045;-76
2023/01/26 10:39:18;;;;;;;27.92;16.35;;;3.00;1.00;;;;;;4941124;29;20051;-77
2023/01/26 10:42:01;;;;;;;26.00;15.57;;;3.10;1.00;;;;;;4963786;28;20051;-74
2023/01/26 10:44:33;;;;;;;28.35;17.42;;;3.30;1.00;;;;;;4952976;29;20098;-75
2023/01/26 10:47:06;;;;;;;37.42;19.92;;;3.30;1.00;;;;;;4936874;29;20054;-77
2023/01/26 10:49:35;;;;;;;32.40;19.48;;;3.40;1.00;;;;;;4953188;28;20051;-75
2023/01/26 10:52:09;;;;;;;22.02;14.30;;;3.40;1.00;;;;;;4953169;29;20051;-75
2023/01/26 10:54:38;;;;;;;37.63;21.38;;;3.50;1.00;;;;;;4953076;29;20670;-77
2023/01/26 10:57:14;;;;;;;41.90;22.83;;;3.50;1.00;;;;;;4953668;29;20039;-75
2023/01/26 10:59:45;;;;;;;44.85;23.15;;;3.40;1.00;;;;;;4952930;29;20049;-76
2023/01/26 11:02:22;;;;;;;36.58;18.83;;;3.30;1.00;;;;;;4953853;29;20059;-75
2023/01/26 11:05:22;;;;;;;39.25;22.63;;;3.00;1.00;;;;;;4953475;29;20123;-77
2023/01/26 11:07:57;;;;;;;41.20;24.45;;;2.90;1.00;;;;;;4954089;29;20043;-77
2023/01/26 11:10:31;;;;;;;25.98;18.73;;;2.90;1.00;;;;;;4954328;29;20039;-76
2023/01/26 11:13:22;;;;;;;28.92;18.85;;;3.00;1.00;;;;;;4953669;29;20106;-75
2023/01/26 11:15:51;;;;;;;33.50;22.23;;;3.00;1.00;;;;;;4950393;29;20062;-75
2023/01/26 11:18:29;;;;;;;27.20;18.52;;;3.00;1.00;;;;;;4953414;29;20053;-78
2023/01/26 11:21:04;;;;;;;24.20;17.15;;;3.10;1.00;;;;;;4952862;29;20039;-76
2023/01/26 11:23:51;;;;;;;26.23;18.52;;;3.10;1.00;;;;;;4952602;29;20049;-76
2023/01/26 11:26:31;;;;;;;;;;;3.10;1.00;;;;;;4953331;29;20050;-75
2023/01/26 11:29:10;;;;;;;28.08;18.90;;;3.20;1.00;;;;;;4953233;29;19933;-77
2023/01/26 11:31:51;;;;;;;45.20;27.80;;;3.10;1.00;;;;;;4952527;29;20058;-76
2023/01/26 11:34:28;;;;;;;36.72;25.08;;;3.20;1.00;;;;;;4953057;29;20043;-76
2023/01/26 11:37:12;;;;;;;27.73;20.45;;;3.20;1.00;;;;;;4952379;29;20046;-75
2023/01/26 11:39:53;;;;;;;37.55;26.27;;;3.00;1.00;;;;;;4934935;29;20268;-75
2023/01/26 11:42:27;;;;;;;37.45;26.83;;;2.90;1.00;;;;;;4953358;29;20078;-77
2023/01/26 11:45:08;;;;;;;40.00;26.85;;;2.90;1.00;;;;;;4953383;29;20046;-75
2023/01/26 11:47:52;;;;;;;39.65;24.05;;;2.90;1.00;;;;;;4952709;28;20066;-75
2023/01/26 11:50:29;;;;;;;47.58;28.17;;;2.70;1.00;;;;;;4952408;29;20051;-75
2023/01/26 11:53:21;;;;;;;42.05;25.85;;;2.80;1.00;;;;;;4951666;28;20133;-77
2023/01/26 11:56:00;;;;;;;31.75;20.70;;;2.70;1.00;;;;;;4951199;29;20501;-77
2023/01/26 11:58:32;;;;;;;35.60;24.08;;;2.60;1.00;;;;;;4952449;29;20126;-74
2023/01/26 12:01:02;;;;;;;36.80;24.20;;;2.50;1.00;;;;;;4935103;28;20051;-75
2023/01/26 12:03:37;;;;;;;31.77;21.17;;;2.50;40.20;;;;;;4951799;28;20090;-75
2023/01/26 12:06:13;;;;;;;47.10;30.25;;;2.40;1.00;;;;;;4956289;29;20038;-76
2023/01/26 12:08:44;;;;;;;34.30;24.70;;;2.30;1.00;;;;;;4963288;29;20070;-76
2023/01/26 12:11:24;;;;;;;32.72;23.13;;;2.20;10.40;;;;;;4959635;29;20142;-77
2023/01/26 12:14:04;;;;;;;43.35;28.13;;;2.10;90.50;;;;;;4965006;29;20047;-77
2023/01/26 12:16:40;;;;;;;38.80;24.77;;;2.00;99.90;;;;;;4962281;29;20039;-76
2023/01/26 12:19:15;;;;;;;36.70;24.45;;;2.10;99.90;;;;;;4954935;29;20065;-76
2023/01/26 12:21:45;;;;;;;53.88;32.67;;;2.00;99.90;;;;;;4952293;28;20047;-76
2023/01/26 12:24:20;;;;;;;29.92;20.67;;;2.00;99.90;;;;;;4954964;29;20055;-79
2023/01/26 12:26:53;;;;;;;37.70;26.02;;;2.00;99.90;;;;;;4938640;29;20063;-77
2023/01/26 12:29:25;;;;;;;36.75;24.42;;;2.00;99.90;;;;;;4956165;29;20055;-75
2023/01/26 12:31:58;;;;;;;46.47;29.90;;;2.00;99.90;;;;;;4953599;29;20047;-76
2023/01/26 12:34:28;;;;;;;48.38;29.90;;;2.00;99.90;;;;;;4954480;29;20035;-74
2023/01/26 12:37:15;;;;;;;41.33;27.88;;;2.00;99.90;;;;;;4953689;29;20071;-74
2023/01/26 12:39:45;;;;;;;43.83;29.98;;;2.10;99.90;;;;;;4961993;29;20070;-76
2023/01/26 12:42:24;;;;;;;39.75;27.50;;;2.20;99.90;;;;;;4953682;28;20476;-76
2023/01/26 12:44:54;;;;;;;47.58;33.38;;;2.20;99.90;;;;;;4954082;29;20150;-76
2023/01/26 12:47:29;;;;;;;42.75;30.17;;;2.10;99.90;;;;;;4956416;29;20171;-75
2023/01/26 12:50:02;;;;;;;38.03;25.60;;;2.00;99.90;;;;;;4958499;28;20053;-76
2023/01/26 12:52:35;;;;;;;80.45;45.38;;;2.10;99.90;;;;;;4959087;28;20059;-77
2023/01/26 12:55:12;;;;;;;70.82;41.95;;;2.00;99.90;;;;;;4959605;29;20043;-76
2023/01/26 12:57:46;;;;;;;64.30;40.92;;;2.00;99.90;;;;;;4956507;29;20048;-77
2023/01/26 13:00:21;;;;;;;48.72;32.53;;;2.10;99.90;;;;;;4954265;29;20041;-75
2023/01/26 13:02:52;;;;;;;38.45;27.58;;;2.10;99.90;;;;;;4937518;29;20051;-76
2023/01/26 13:05:29;;;;;;;32.33;23.50;;;2.20;99.90;;;;;;4954915;29;20043;-76
2023/01/26 13:07:57;;;;;;;32.20;22.63;;;2.20;99.90;;;;;;4952904;29;20054;-77
2023/01/26 13:10:28;;;;;;;28.60;20.38;;;2.20;99.90;;;;;;4953177;29;20047;-76
2023/01/26 13:12:59;;;;;;;37.55;24.83;;;2.20;99.90;;;;;;4954219;28;20062;-74
2023/01/26 13:15:29;;;;;;;41.42;26.77;;;2.10;99.90;;;;;;4959368;29;20063;-78
2023/01/26 13:17:59;;;;;;;47.25;30.08;;;2.00;99.90;;;;;;4960613;29;20047;-77
2023/01/26 13:20:44;;;;;;;45.03;29.45;;;1.90;99.90;;;;;;4957482;29;20043;-77
2023/01/26 13:23:40;;;;;;;42.08;28.30;;;1.90;99.90;;;;;;4958867;28;20058;-76
2023/01/26 13:26:24;;;;;;;51.72;33.53;;;1.90;99.90;;;;;;4955193;29;20476;-78
2023/01/26 13:29:27;;;;;;;48.22;31.75;;;2.00;99.90;;;;;;4954547;29;20051;-78
2023/01/26 13:31:56;;;;;;;50.35;31.08;;;2.00;99.90;;;;;;4954113;29;20043;-79
2023/01/26 13:34:28;;;;;;;56.10;34.15;;;2.10;99.90;;;;;;4957750;29;20143;-77
2023/01/26 13:36:59;;;;;;;43.33;27.98;;;2.00;99.90;;;;;;4958807;29;20130;-77
2023/01/26 13:39:31;;;;;;;39.05;24.67;;;2.10;99.90;;;;;;4961945;29;20122;-77
2023/01/26 13:41:59;;;;;;;52.40;30.75;;;2.10;99.90;;;;;;4962858;28;20506;-75
2023/01/26 13:44:37;;;;;;;43.55;27.05;;;2.10;99.90;;;;;;4961796;29;20047;-79
2023/01/26 13:47:11;;;;;;;68.60;38.55;;;2.00;99.90;;;;;;4960736;29;20071;-76
2023/01/26 13:49:40;;;;;;;56.72;33.10;;;2.00;99.90;;;;;;4960802;28;20047;-77
2023/01/26 13:52:18;;;;;;;47.33;28.60;;;2.10;99.90;;;;;;4960506;29;20043;-77
2023/01/26 13:54:47;;;;;;;49.00;27.42;;;2.10;99.90;;;;;;4945272;29;20055;-76